Ambia, Indiana
Current Conditions -  °F | °C
As of 10:15 AM on Monday 24 Nov 2014 (Local Time) from KDNV Reporting Station
Overcast Overcast  
Wind Chill: 23°   Ceiling: 1500
Heat Index: 35°   Visibility: 10mi
Dew Point: 32°   Wind: 25mph
Humidity: 89%   Direction: 250°WSW
Pressure: 29.39"   Gusts: 36mph
Location:  40.49°N, 87.52°W
Report Text: KDNV 241515Z AUTO 25022G31KT 10SM OVC015 02/00 A2939 RMK AO2 T00170000
Loading
Personal Weather Stations






























Interactive Weather Map New forecast layout! Learn more

10-Day Weather Forecast

Advertisements
Track Severe Weather on mobile